Time,TemperatureF,DewpointF,PressureIn,WindDirection,WindDirectionDegrees,WindSpeedMPH,WindSpeedGustMPH,Humidity,HourlyPrecipIn,Conditions,Clouds,dailyrainin,SolarRadiationWatts/m^2,SoftwareType,DateUTC
2013-07-17 00:11:00,74.2,73.0,30.16,ESE,115,0.0,0.0,96,0.00,,,0.00,0,Wunderground v.1.15,2013-07-17 05:11:00,
2013-07-17 00:19:00,74.0,72.8,30.16,ESE,115,0.0,1.0,96,0.00,,,0.00,0,Wunderground v.1.15,2013-07-17 05:19:00,
2013-07-17 00:24:00,74.0,72.8,30.16,ESE,115,0.0,1.0,96,0.00,,,0.00,0,Wunderground v.1.15,2013-07-17 05:24:00,
2013-07-17 00:30:00,74.0,73.1,30.16,ESE,114,0.0,0.0,97,0.00,,,0.00,0,Wunderground v.1.15,2013-07-17 05:30:00,
2013-07-17 00:35:00,73.9,73.0,30.16,ESE,114,0.0,0.0,97,0.00,,,0.00,0,Wunderground v.1.15,2013-07-17 05:35:00,
2013-07-17 00:40:00,73.9,73.0,30.16,ESE,114,0.0,0.0,97,0.00,,,0.00,0,Wunderground v.1.15,2013-07-17 05:40:00,
2013-07-17 00:45:00,73.8,72.9,30.16,ESE,108,0.0,0.0,97,0.00,,,0.00,0,Wunderground v.1.15,2013-07-17 05:45:00,
2013-07-17 00:50:00,73.7,72.8,30.16,ESE,108,0.0,0.0,97,0.00,,,0.00,0,Wunderground v.1.15,2013-07-17 05:50:00,
2013-07-17 00:55:00,73.7,72.8,30.16,ESE,108,0.0,0.0,97,0.00,,,0.00,0,Wunderground v.1.15,2013-07-17 05:55:00,
2013-07-17 01:01:00,73.7,72.8,30.16,ESE,108,0.0,0.0,97,0.00,,,0.00,0,Wunderground v.1.15,2013-07-17 06:01:00,
2013-07-17 01:07:00,73.6,72.7,30.15,ESE,108,0.0,2.0,97,0.00,,,0.00,0,Wunderground v.1.15,2013-07-17 06:07:00,
2013-07-17 01:12:00,73.6,72.7,30.15,ESE,108,0.0,0.0,97,0.00,,,0.00,0,Wunderground v.1.15,2013-07-17 06:12:00,
2013-07-17 01:17:00,73.6,72.7,30.15,ESE,103,0.0,0.0,97,0.00,,,0.00,0,Wunderground v.1.15,2013-07-17 06:17:00,
2013-07-17 01:22:00,73.5,72.6,30.15,East,100,0.0,0.0,97,0.00,,,0.00,0,Wunderground v.1.15,2013-07-17 06:22:00,
2013-07-17 01:27:00,73.5,72.6,30.15,East,100,0.0,0.0,97,0.00,,,0.00,0,Wunderground v.1.15,2013-07-17 06:27:00,
2013-07-17 01:32:00,73.4,72.5,30.15,East,100,0.0,0.0,97,0.00,,,0.00,0,Wunderground v.1.15,2013-07-17 06:32:00,
2013-07-17 01:37:00,73.4,72.5,30.15,East,100,0.0,0.0,97,0.00,,,0.00,0,Wunderground v.1.15,2013-07-17 06:37:00,
2013-07-17 01:43:00,73.3,72.4,30.15,East,100,0.0,0.0,97,0.00,,,0.00,0,Wunderground v.1.15,2013-07-17 06:43:00,
2013-07-17 01:48:00,73.3,72.4,30.15,East,100,0.0,0.0,97,0.00,,,0.00,0,Wunderground v.1.15,2013-07-17 06:48:00,
2013-07-17 01:53:00,73.3,72.4,30.15,East,100,0.0,0.0,97,0.00,,,0.00,0,Wunderground v.1.15,2013-07-17 06:53:00,
2013-07-17 01:59:00,73.2,72.3,30.15,East,100,0.0,0.0,97,0.00,,,0.00,0,Wunderground v.1.15,2013-07-17 06:59:00,
2013-07-17 02:04:00,73.2,72.3,30.15,East,100,0.0,0.0,97,0.00,,,0.00,0,Wunderground v.1.15,2013-07-17 07:04:00,
2013-07-17 02:09:00,73.1,72.2,30.15,East,100,0.0,1.0,97,0.00,,,0.00,0,Wunderground v.1.15,2013-07-17 07:09:00,
2013-07-17 02:14:00,73.1,72.2,30.15,East,100,0.0,0.0,97,0.00,,,0.00,0,Wunderground v.1.15,2013-07-17 07:14:00,
2013-07-17 02:19:00,73.1,72.2,30.15,East,100,0.0,0.0,97,0.00,,,0.00,0,Wunderground v.1.15,2013-07-17 07:19:00,
2013-07-17 02:25:00,73.0,72.1,30.15,East,100,0.0,2.0,97,0.00,,,0.00,0,Wunderground v.1.15,2013-07-17 07:25:00,
2013-07-17 02:30:00,73.0,72.1,30.15,East,100,0.0,0.0,97,0.00,,,0.00,0,Wunderground v.1.15,2013-07-17 07:30:00,
2013-07-17 02:35:00,73.0,72.1,30.14,East,100,0.0,0.0,97,0.00,,,0.00,0,Wunderground v.1.15,2013-07-17 07:35:00,
2013-07-17 02:42:00,73.0,72.1,30.14,East,100,0.0,0.0,97,0.00,,,0.00,0,Wunderground v.1.15,2013-07-17 07:42:00,
2013-07-17 02:47:00,73.0,72.1,30.15,East,99,0.0,0.0,97,0.00,,,0.00,0,Wunderground v.1.15,2013-07-17 07:47:00,
2013-07-17 02:52:00,72.9,72.0,30.15,East,99,0.0,0.0,97,0.00,,,0.00,0,Wunderground v.1.15,2013-07-17 07:52:00,
2013-07-17 02:58:00,72.9,72.0,30.15,East,99,0.0,0.0,97,0.00,,,0.00,0,Wunderground v.1.15,2013-07-17 07:58:00,
2013-07-17 03:03:00,72.8,71.9,30.15,East,99,0.0,0.0,97,0.00,,,0.00,0,Wunderground v.1.15,2013-07-17 08:03:00,
2013-07-17 03:08:00,72.8,71.9,30.15,East,99,0.0,0.0,97,0.00,,,0.00,0,Wunderground v.1.15,2013-07-17 08:08:00,
2013-07-17 03:13:00,72.8,71.9,30.15,East,99,0.0,0.0,97,0.00,,,0.00,0,Wunderground v.1.15,2013-07-17 08:13:00,
2013-07-17 03:19:00,72.8,71.9,30.15,East,99,0.0,0.0,97,0.00,,,0.00,0,Wunderground v.1.15,2013-07-17 08:19:00,
2013-07-17 03:24:00,72.8,71.9,30.15,East,99,0.0,0.0,97,0.00,,,0.00,0,Wunderground v.1.15,2013-07-17 08:24:00,
2013-07-17 03:29:00,72.8,71.9,30.15,East,99,0.0,2.0,97,0.00,,,0.00,0,Wunderground v.1.15,2013-07-17 08:29:00,
2013-07-17 03:36:00,72.7,71.8,30.15,East,99,0.0,0.0,97,0.00,,,0.00,0,Wunderground v.1.15,2013-07-17 08:36:00,
2013-07-17 03:41:00,72.7,71.8,30.15,East,99,0.0,0.0,97,0.00,,,0.00,0,Wunderground v.1.15,2013-07-17 08:41:00,
2013-07-17 03:47:00,72.6,72.0,30.15,East,99,0.0,0.0,98,0.00,,,0.00,0,Wunderground v.1.15,2013-07-17 08:47:00,
2013-07-17 03:53:00,72.6,72.0,30.15,East,99,0.0,0.0,98,0.00,,,0.00,0,Wunderground v.1.15,2013-07-17 08:53:00,
2013-07-17 03:59:00,72.6,72.0,30.15,East,99,0.0,1.0,98,0.00,,,0.00,0,Wunderground v.1.15,2013-07-17 08:59:00,
2013-07-17 04:07:00,72.6,72.0,30.15,East,99,0.0,0.0,98,0.00,,,0.00,0,Wunderground v.1.15,2013-07-17 09:07:00,
2013-07-17 04:14:00,72.5,71.9,30.15,East,99,0.0,0.0,98,0.00,,,0.00,0,Wunderground v.1.15,2013-07-17 09:14:00,
2013-07-17 04:20:00,72.5,71.9,30.15,East,99,0.0,0.0,98,0.00,,,0.00,0,Wunderground v.1.15,2013-07-17 09:20:00,
2013-07-17 04:26:00,72.4,71.8,30.15,East,99,0.0,0.0,98,0.00,,,0.00,0,Wunderground v.1.15,2013-07-17 09:26:00,
2013-07-17 04:38:00,72.4,71.8,30.15,East,99,0.0,1.0,98,0.00,,,0.00,0,Wunderground v.1.15,2013-07-17 09:38:00,
2013-07-17 04:47:00,72.4,71.8,30.15,East,99,0.0,0.0,98,0.00,,,0.00,0,Wunderground v.1.15,2013-07-17 09:47:00,
2013-07-17 04:55:00,72.3,71.7,30.15,East,99,0.0,0.0,98,0.00,,,0.00,0,Wunderground v.1.15,2013-07-17 09:55:00,
2013-07-17 05:00:00,72.3,71.7,30.15,East,99,0.0,0.0,98,0.00,,,0.00,0,Wunderground v.1.15,2013-07-17 10:00:00,
2013-07-17 05:05:00,72.2,71.3,30.15,East,99,0.0,0.0,97,0.00,,,0.00,0,Wunderground v.1.15,2013-07-17 10:05:00,
2013-07-17 05:11:00,72.2,71.6,30.15,East,98,0.0,0.0,98,0.00,,,0.00,0,Wunderground v.1.15,2013-07-17 10:11:00,
2013-07-17 05:16:00,72.1,71.2,30.15,East,98,0.0,0.0,97,0.00,,,0.00,0,Wunderground v.1.15,2013-07-17 10:16:00,
2013-07-17 05:21:00,72.1,71.5,30.15,East,99,0.0,0.0,98,0.00,,,0.00,0,Wunderground v.1.15,2013-07-17 10:21:00,
2013-07-17 05:27:00,72.0,71.4,30.15,East,99,0.0,0.0,98,0.00,,,0.00,0,Wunderground v.1.15,2013-07-17 10:27:00,
2013-07-17 05:32:00,72.0,71.4,30.15,East,99,0.0,0.0,98,0.00,,,0.00,0,Wunderground v.1.15,2013-07-17 10:32:00,
2013-07-17 05:37:00,72.0,71.4,30.15,East,99,0.0,0.0,98,0.00,,,0.00,0,Wunderground v.1.15,2013-07-17 10:37:00,
2013-07-17 05:42:00,71.9,71.3,30.15,East,99,0.0,0.0,98,0.00,,,0.00,0,Wunderground v.1.15,2013-07-17 10:42:00,
2013-07-17 05:48:00,71.9,71.3,30.15,East,99,0.0,0.0,98,0.00,,,0.00,0,Wunderground v.1.15,2013-07-17 10:48:00,
2013-07-17 05:53:00,71.8,71.2,30.16,East,99,0.0,1.0,98,0.00,,,0.00,0,Wunderground v.1.15,2013-07-17 10:53:00,
2013-07-17 05:58:00,71.8,71.2,30.15,East,99,0.0,1.0,98,0.00,,,0.00,0,Wunderground v.1.15,2013-07-17 10:58:00,
2013-07-17 06:03:00,71.8,71.2,30.15,East,99,0.0,0.0,98,0.00,,,0.00,0,Wunderground v.1.15,2013-07-17 11:03:00,
2013-07-17 06:08:00,71.8,71.2,30.15,East,99,0.0,2.0,98,0.00,,,0.00,0,Wunderground v.1.15,2013-07-17 11:08:00,
2013-07-17 06:14:00,71.8,71.2,30.15,East,99,0.0,0.0,98,0.00,,,0.00,5,Wunderground v.1.15,2013-07-17 11:14:00,
2013-07-17 06:20:00,71.7,71.1,30.15,East,99,0.0,0.0,98,0.00,,,0.00,9,Wunderground v.1.15,2013-07-17 11:20:00,
2013-07-17 06:29:00,71.6,70.7,30.16,East,99,0.0,0.0,97,0.00,,,0.00,12,Wunderground v.1.15,2013-07-17 11:29:00,
2013-07-17 06:34:00,71.7,71.1,30.15,East,98,0.0,2.0,98,0.00,,,0.00,16,Wunderground v.1.15,2013-07-17 11:34:00,
2013-07-17 06:43:00,71.7,71.1,30.16,East,98,0.0,0.0,98,0.00,,,0.00,19,Wunderground v.1.15,2013-07-17 11:43:00,
2013-07-17 06:50:00,71.8,71.2,30.16,East,98,0.0,0.0,98,0.00,,,0.00,62,Wunderground v.1.15,2013-07-17 11:50:00,
2013-07-17 06:55:00,71.9,71.3,30.16,East,98,0.0,0.0,98,0.00,,,0.00,40,Wunderground v.1.15,2013-07-17 11:55:00,
2013-07-17 07:00:00,72.1,71.5,30.16,East,98,0.0,0.0,98,0.00,,,0.00,37,Wunderground v.1.15,2013-07-17 12:00:00,
2013-07-17 07:08:00,72.2,71.3,30.17,East,88,0.0,3.0,97,0.00,,,0.00,33,Wunderground v.1.15,2013-07-17 12:08:00,
2013-07-17 07:14:00,72.4,71.8,30.17,East,86,0.0,0.0,98,0.00,,,0.00,33,Wunderground v.1.15,2013-07-17 12:14:00,
2013-07-17 07:20:00,72.6,71.7,30.17,East,86,0.0,0.0,97,0.00,,,0.00,35,Wunderground v.1.15,2013-07-17 12:20:00,
2013-07-17 07:27:00,73.0,72.1,30.17,East,86,0.0,0.0,97,0.00,,,0.00,169,Wunderground v.1.15,2013-07-17 12:27:00,
2013-07-17 07:33:00,73.5,72.3,30.17,ENE,76,0.0,0.0,96,0.00,,,0.00,185,Wunderground v.1.15,2013-07-17 12:33:00,
2013-07-17 07:38:00,74.1,72.9,30.18,ENE,73,0.0,0.0,96,0.00,,,0.00,206,Wunderground v.1.15,2013-07-17 12:38:00,
2013-07-17 07:44:00,74.6,72.8,30.18,East,97,0.0,3.0,94,0.00,,,0.00,223,Wunderground v.1.15,2013-07-17 12:44:00,
2013-07-17 07:49:00,74.9,73.1,30.18,East,95,0.0,3.0,94,0.00,,,0.00,237,Wunderground v.1.15,2013-07-17 12:49:00,
2013-07-17 07:54:00,75.3,73.1,30.17,ENE,65,0.0,0.0,93,0.00,,,0.00,255,Wunderground v.1.15,2013-07-17 12:54:00,
2013-07-17 07:59:00,75.6,73.4,30.17,ENE,65,0.0,0.0,93,0.00,,,0.00,272,Wunderground v.1.15,2013-07-17 12:59:00,
2013-07-17 08:05:00,76.1,73.6,30.18,ESE,106,0.0,0.0,92,0.00,,,0.00,297,Wunderground v.1.15,2013-07-17 13:05:00,
2013-07-17 08:10:00,76.5,73.7,30.18,SSE,153,0.0,0.0,91,0.00,,,0.00,318,Wunderground v.1.15,2013-07-17 13:10:00,
2013-07-17 08:15:00,76.9,73.7,30.18,SE,127,0.0,0.0,90,0.00,,,0.00,336,Wunderground v.1.15,2013-07-17 13:15:00,
2013-07-17 08:20:00,77.3,73.5,30.18,ESE,104,0.0,0.0,88,0.00,,,0.00,352,Wunderground v.1.15,2013-07-17 13:20:00,
2013-07-17 08:25:00,77.6,73.8,30.18,ESE,119,0.0,0.0,88,0.00,,,0.00,369,Wunderground v.1.15,2013-07-17 13:25:00,
2013-07-17 08:30:00,78.0,73.8,30.18,East,90,0.0,0.0,87,0.00,,,0.00,383,Wunderground v.1.15,2013-07-17 13:30:00,
2013-07-17 08:36:00,78.4,73.9,30.18,East,99,0.0,0.0,86,0.00,,,0.00,404,Wunderground v.1.15,2013-07-17 13:36:00,
2013-07-17 08:41:00,78.7,73.8,30.18,ENE,61,0.0,0.0,85,0.00,,,0.00,420,Wunderground v.1.15,2013-07-17 13:41:00,
2013-07-17 08:46:00,78.9,73.7,30.18,SE,137,0.0,0.0,84,0.00,,,0.00,438,Wunderground v.1.15,2013-07-17 13:46:00,
2013-07-17 08:51:00,79.3,73.7,30.18,East,101,0.0,0.0,83,0.00,,,0.00,455,Wunderground v.1.15,2013-07-17 13:51:00,
2013-07-17 08:56:00,79.6,74.0,30.18,ESE,106,0.0,0.0,83,0.00,,,0.00,471,Wunderground v.1.15,2013-07-17 13:56:00,
2013-07-17 09:01:00,80.1,74.8,30.18,East,97,0.0,0.0,84,0.00,,,0.00,487,Wunderground v.1.15,2013-07-17 14:01:00,
2013-07-17 09:06:00,80.3,74.3,30.18,NE,54,0.0,5.0,82,0.00,,,0.00,506,Wunderground v.1.15,2013-07-17 14:06:00,
2013-07-17 09:11:00,80.6,74.6,30.19,SE,137,0.0,1.0,82,0.00,,,0.00,524,Wunderground v.1.15,2013-07-17 14:11:00,
2013-07-17 09:17:00,80.8,74.0,30.19,East,96,0.0,1.0,80,0.00,,,0.00,541,Wunderground v.1.15,2013-07-17 14:17:00,
2013-07-17 09:22:00,80.9,74.1,30.19,ESE,113,0.0,0.0,80,0.00,,,0.00,555,Wunderground v.1.15,2013-07-17 14:22:00,
2013-07-17 09:27:00,81.1,74.3,30.19,ENE,78,0.0,8.0,80,0.00,,,0.00,570,Wunderground v.1.15,2013-07-17 14:27:00,
2013-07-17 09:32:00,81.6,74.8,30.19,ENE,64,0.0,0.0,80,0.00,,,0.00,585,Wunderground v.1.15,2013-07-17 14:32:00,
2013-07-17 09:37:00,82.0,74.1,30.19,East,96,0.0,0.0,77,0.00,,,0.00,603,Wunderground v.1.15,2013-07-17 14:37:00,
2013-07-17 09:42:00,81.9,74.0,30.19,East,84,1.0,1.0,77,0.00,,,0.00,619,Wunderground v.1.15,2013-07-17 14:42:00,
2013-07-17 09:48:00,82.0,73.7,30.19,SE,134,1.0,4.0,76,0.00,,,0.00,635,Wunderground v.1.15,2013-07-17 14:48:00,
2013-07-17 09:53:00,82.2,74.7,30.19,ENE,60,2.0,2.0,78,0.00,,,0.00,649,Wunderground v.1.15,2013-07-17 14:53:00,
2013-07-17 09:58:00,82.4,73.7,30.19,East,91,1.0,2.0,75,0.00,,,0.00,664,Wunderground v.1.15,2013-07-17 14:58:00,
2013-07-17 10:03:00,82.7,74.0,30.19,East,100,1.0,1.0,75,0.00,,,0.00,679,Wunderground v.1.15,2013-07-17 15:03:00,
2013-07-17 10:09:00,82.9,74.2,30.19,ENE,66,0.0,1.0,75,0.00,,,0.00,693,Wunderground v.1.15,2013-07-17 15:09:00,
2013-07-17 10:14:00,83.0,73.4,30.19,ENE,64,1.0,3.0,73,0.00,,,0.00,708,Wunderground v.1.15,2013-07-17 15:14:00,
2013-07-17 10:19:00,83.3,73.7,30.19,ESE,117,1.0,3.0,73,0.00,,,0.00,721,Wunderground v.1.15,2013-07-17 15:19:00,
2013-07-17 10:24:00,83.4,72.6,30.19,ESE,121,0.0,1.0,70,0.00,,,0.00,735,Wunderground v.1.15,2013-07-17 15:24:00,
2013-07-17 10:30:00,83.6,72.8,30.19,ESE,120,1.0,4.0,70,0.00,,,0.00,751,Wunderground v.1.15,2013-07-17 15:30:00,
2013-07-17 10:36:00,83.7,72.9,30.19,ESE,102,1.0,4.0,70,0.00,,,0.00,761,Wunderground v.1.15,2013-07-17 15:36:00,
2013-07-17 10:42:00,84.0,73.6,30.19,North,10,0.0,1.0,71,0.00,,,0.00,780,Wunderground v.1.15,2013-07-17 15:42:00,
2013-07-17 10:47:00,84.2,73.3,30.19,SE,125,0.0,1.0,70,0.00,,,0.00,789,Wunderground v.1.15,2013-07-17 15:47:00,
2013-07-17 10:53:00,84.5,73.6,30.19,East,94,1.0,1.0,70,0.00,,,0.00,803,Wunderground v.1.15,2013-07-17 15:53:00,
2013-07-17 10:59:00,84.6,73.3,30.19,ESE,118,1.0,4.0,69,0.00,,,0.00,816,Wunderground v.1.15,2013-07-17 15:59:00,
2013-07-17 11:05:00,85.0,73.3,30.20,East,83,1.0,8.0,68,0.00,,,0.00,849,Wunderground v.1.15,2013-07-17 16:05:00,
2013-07-17 11:11:00,84.9,74.0,30.19,East,82,1.0,1.0,70,0.00,,,0.00,846,Wunderground v.1.15,2013-07-17 16:11:00,
2013-07-17 11:18:00,85.1,74.2,30.20,East,101,1.0,1.0,70,0.00,,,0.00,865,Wunderground v.1.15,2013-07-17 16:18:00,
2013-07-17 11:24:00,85.4,74.5,30.20,NE,44,2.0,2.0,70,0.00,,,0.00,798,Wunderground v.1.15,2013-07-17 16:24:00,
2013-07-17 11:29:00,85.4,74.9,30.20,ENE,74,2.0,7.0,71,0.00,,,0.00,97,Wunderground v.1.15,2013-07-17 16:29:00,
2013-07-17 11:34:00,85.7,73.9,30.20,East,81,2.0,6.0,68,0.00,,,0.00,886,Wunderground v.1.15,2013-07-17 16:34:00,
2013-07-17 11:40:00,85.6,73.8,30.20,NE,53,2.0,2.0,68,0.00,,,0.00,905,Wunderground v.1.15,2013-07-17 16:40:00,
2013-07-17 11:45:00,85.8,74.0,30.19,NNE,32,2.0,2.0,68,0.00,,,0.00,926,Wunderground v.1.15,2013-07-17 16:45:00,
2013-07-17 11:50:00,85.9,74.5,30.19,NE,50,1.0,1.0,69,0.00,,,0.00,963,Wunderground v.1.15,2013-07-17 16:50:00,
2013-07-17 11:56:00,85.7,73.9,30.19,NE,47,1.0,5.0,68,0.00,,,0.00,230,Wunderground v.1.15,2013-07-17 16:56:00,
2013-07-17 12:02:00,85.4,73.6,30.20,ENE,63,1.0,1.0,68,0.00,,,0.00,237,Wunderground v.1.15,2013-07-17 17:02:00,
2013-07-17 12:26:00,86.0,74.6,30.19,ENE,77,1.0,4.0,69,0.00,,,0.00,712,Wunderground v.1.15,2013-07-17 17:26:00,
2013-07-17 12:31:00,86.3,74.0,30.19,NNE,26,1.0,5.0,67,0.00,,,0.00,1086,Wunderground v.1.15,2013-07-17 17:31:00,
2013-07-17 12:36:00,86.2,73.5,30.19,ESE,118,1.0,5.0,66,0.00,,,0.00,357,Wunderground v.1.15,2013-07-17 17:36:00,
2013-07-17 12:41:00,86.1,73.9,30.19,ENE,63,1.0,2.0,67,0.00,,,0.00,274,Wunderground v.1.15,2013-07-17 17:41:00,
2013-07-17 12:46:00,86.1,74.3,30.19,ENE,63,0.0,2.0,68,0.00,,,0.00,1051,Wunderground v.1.15,2013-07-17 17:46:00,
2013-07-17 12:52:00,86.5,73.8,30.19,ESE,120,1.0,2.0,66,0.00,,,0.00,1093,Wunderground v.1.15,2013-07-17 17:52:00,
2013-07-17 12:57:00,86.5,74.2,30.19,NE,39,1.0,3.0,67,0.00,,,0.00,1139,Wunderground v.1.15,2013-07-17 17:57:00,
2013-07-17 13:02:00,86.5,74.2,30.18,ENE,62,1.0,6.0,67,0.00,,,0.00,1063,Wunderground v.1.15,2013-07-17 18:02:00,
2013-07-17 13:07:00,86.5,74.2,30.18,ENE,63,2.0,7.0,67,0.00,,,0.00,1095,Wunderground v.1.15,2013-07-17 18:07:00,
2013-07-17 13:12:00,86.6,73.9,30.17,NE,56,1.0,4.0,66,0.00,,,0.00,1063,Wunderground v.1.15,2013-07-17 18:12:00,
2013-07-17 13:18:00,87.1,74.4,30.17,ENE,70,2.0,9.0,66,0.00,,,0.00,1046,Wunderground v.1.15,2013-07-17 18:18:00,
2013-07-17 13:23:00,87.4,73.7,30.17,NNE,21,2.0,9.0,64,0.00,,,0.00,1041,Wunderground v.1.15,2013-07-17 18:23:00,
2013-07-17 13:28:00,87.5,74.7,30.17,NE,38,2.0,9.0,66,0.00,,,0.00,1111,Wunderground v.1.15,2013-07-17 18:28:00,
2013-07-17 13:33:00,87.1,73.0,30.17,ENE,69,3.0,4.0,63,0.00,,,0.00,200,Wunderground v.1.15,2013-07-17 18:33:00,
2013-07-17 13:38:00,86.8,74.1,30.17,NNE,15,2.0,5.0,66,0.00,,,0.00,1032,Wunderground v.1.15,2013-07-17 18:38:00,
2013-07-17 13:43:00,87.1,74.4,30.17,ESE,102,1.0,2.0,66,0.00,,,0.00,1018,Wunderground v.1.15,2013-07-17 18:43:00,
2013-07-17 13:49:00,87.4,73.7,30.17,ENE,58,1.0,5.0,64,0.00,,,0.00,1056,Wunderground v.1.15,2013-07-17 18:49:00,
2013-07-17 13:54:00,87.1,73.9,30.16,NE,48,2.0,4.0,65,0.00,,,0.00,1028,Wunderground v.1.15,2013-07-17 18:54:00,
2013-07-17 14:01:00,87.1,73.0,30.16,NE,53,2.0,2.0,63,0.00,,,0.00,534,Wunderground v.1.15,2013-07-17 19:01:00,
2013-07-17 14:07:00,87.0,73.3,30.16,East,87,1.0,2.0,64,0.00,,,0.00,262,Wunderground v.1.15,2013-07-17 19:07:00,
2013-07-17 14:12:00,86.9,74.2,30.16,East,91,0.0,1.0,66,0.00,,,0.00,236,Wunderground v.1.15,2013-07-17 19:12:00,
2013-07-17 14:18:00,86.9,73.7,30.15,East,91,0.0,1.0,65,0.00,,,0.00,292,Wunderground v.1.15,2013-07-17 19:18:00,
2013-07-17 14:24:00,87.0,74.7,30.15,East,92,0.0,0.0,67,0.00,,,0.00,227,Wunderground v.1.15,2013-07-17 19:24:00,
2013-07-17 14:30:00,87.0,74.7,30.15,East,92,0.0,0.0,67,0.00,,,0.00,209,Wunderground v.1.15,2013-07-17 19:30:00,
2013-07-17 14:36:00,86.6,74.3,30.14,East,91,0.0,1.0,67,0.00,,,0.00,206,Wunderground v.1.15,2013-07-17 19:36:00,
2013-07-17 14:42:00,86.2,74.8,30.14,East,91,0.0,0.0,69,0.00,,,0.00,165,Wunderground v.1.15,2013-07-17 19:42:00,
2013-07-17 14:47:00,85.8,74.9,30.14,East,91,0.0,1.0,70,0.00,,,0.00,197,Wunderground v.1.15,2013-07-17 19:47:00,
2013-07-17 14:55:00,86.1,74.7,30.14,ENE,72,0.0,1.0,69,0.00,,,0.00,907,Wunderground v.1.15,2013-07-17 19:55:00,
2013-07-17 15:00:00,86.9,75.5,30.13,ENE,65,1.0,1.0,69,0.00,,,0.00,904,Wunderground v.1.15,2013-07-17 20:00:00,
2013-07-17 15:05:00,87.6,73.4,30.13,NNE,21,1.0,5.0,63,0.00,,,0.00,921,Wunderground v.1.15,2013-07-17 20:05:00,
2013-07-17 15:10:00,88.1,74.8,30.13,SSE,147,2.0,2.0,65,0.00,,,0.00,942,Wunderground v.1.15,2013-07-17 20:10:00,
2013-07-17 15:15:00,88.5,74.3,30.12,SE,127,2.0,8.0,63,0.00,,,0.00,914,Wunderground v.1.15,2013-07-17 20:15:00,
2013-07-17 15:21:00,88.6,75.3,30.13,SE,141,2.0,2.0,65,0.00,,,0.00,911,Wunderground v.1.15,2013-07-17 20:21:00,
2013-07-17 15:26:00,88.5,74.3,30.13,ENE,75,2.0,6.0,63,0.00,,,0.00,947,Wunderground v.1.15,2013-07-17 20:26:00,
2013-07-17 15:31:00,88.5,74.3,30.12,SE,144,2.0,2.0,63,0.00,,,0.00,951,Wunderground v.1.15,2013-07-17 20:31:00,
2013-07-17 15:36:00,88.4,73.7,30.12,East,84,2.0,10.0,62,0.00,,,0.00,239,Wunderground v.1.15,2013-07-17 20:36:00,
2013-07-17 15:41:00,87.9,73.7,30.12,SE,140,2.0,3.0,63,0.00,,,0.00,183,Wunderground v.1.15,2013-07-17 20:41:00,
2013-07-17 15:46:00,87.2,73.5,30.12,SE,138,1.0,3.0,64,0.00,,,0.00,155,Wunderground v.1.15,2013-07-17 20:46:00,
2013-07-17 15:47:00,87.1,73.9,30.11,SE,138,1.0,3.0,65,0.00,,,0.00,149,Wunderground v.1.15,2013-07-17 20:47:00,
2013-07-17 15:52:00,86.5,74.2,30.11,NE,42,1.0,2.0,67,0.00,,,0.00,132,Wunderground v.1.15,2013-07-17 20:52:00,
2013-07-17 15:58:00,85.5,74.2,30.12,North,355,2.0,7.0,69,0.00,,,0.00,121,Wunderground v.1.15,2013-07-17 20:58:00,
2013-07-17 16:03:00,84.1,74.1,30.12,NE,53,3.0,7.0,72,0.00,,,0.00,118,Wunderground v.1.15,2013-07-17 21:03:00,
2013-07-17 16:09:00,82.8,74.1,30.12,NNE,20,3.0,8.0,75,0.00,,,0.00,120,Wunderground v.1.15,2013-07-17 21:09:00,
2013-07-17 16:14:00,82.0,74.1,30.12,NNE,32,2.0,6.0,77,0.00,,,0.00,125,Wunderground v.1.15,2013-07-17 21:14:00,
2013-07-17 16:19:00,81.5,73.6,30.11,NNE,32,1.0,6.0,77,0.00,,,0.00,144,Wunderground v.1.15,2013-07-17 21:19:00,
2013-07-17 16:24:00,81.3,73.8,30.11,NE,34,0.0,1.0,78,0.00,,,0.00,163,Wunderground v.1.15,2013-07-17 21:24:00,
2013-07-17 16:31:00,81.2,74.1,30.12,NE,34,0.0,0.0,79,0.00,,,0.00,181,Wunderground v.1.15,2013-07-17 21:31:00,
2013-07-17 16:36:00,81.3,73.8,30.11,NNE,29,0.0,2.0,78,0.00,,,0.00,193,Wunderground v.1.15,2013-07-17 21:36:00,
2013-07-17 16:41:00,81.5,74.4,30.11,NNE,29,0.0,0.0,79,0.00,,,0.00,200,Wunderground v.1.15,2013-07-17 21:41:00,
2013-07-17 16:46:00,81.6,74.1,30.11,NNE,29,0.0,0.0,78,0.00,,,0.00,200,Wunderground v.1.15,2013-07-17 21:46:00,
2013-07-17 16:51:00,81.9,74.4,30.11,NNE,29,0.0,0.0,78,0.00,,,0.00,195,Wunderground v.1.15,2013-07-17 21:51:00,
2013-07-17 16:57:00,82.2,75.0,30.11,NNE,29,0.0,0.0,79,0.00,,,0.00,186,Wunderground v.1.15,2013-07-17 21:57:00,
2013-07-17 17:02:00,82.4,74.8,30.11,NNE,29,0.0,0.0,78,0.00,,,0.00,176,Wunderground v.1.15,2013-07-17 22:02:00,
2013-07-17 17:07:00,82.5,74.9,30.11,NNE,27,0.0,0.0,78,0.00,,,0.00,169,Wunderground v.1.15,2013-07-17 22:07:00,
2013-07-17 17:12:00,82.7,75.5,30.11,NNE,29,0.0,0.0,79,0.00,,,0.00,174,Wunderground v.1.15,2013-07-17 22:12:00,
2013-07-17 17:21:00,82.8,76.0,30.11,NNE,29,0.0,0.0,80,0.00,,,0.00,179,Wunderground v.1.15,2013-07-17 22:21:00,
2013-07-17 17:27:00,82.9,76.1,30.10,NNE,29,0.0,0.0,80,0.00,,,0.00,199,Wunderground v.1.15,2013-07-17 22:27:00,
2013-07-17 17:32:00,82.9,76.5,30.10,NNE,29,0.0,0.0,81,0.00,,,0.00,216,Wunderground v.1.15,2013-07-17 22:32:00,
2013-07-17 17:38:00,83.0,76.9,30.08,NNE,29,0.0,0.0,82,0.00,,,0.00,195,Wunderground v.1.15,2013-07-17 22:38:00,
2013-07-17 18:10:00,84.6,77.7,30.09,NNE,27,0.0,1.0,80,0.00,,,0.00,320,Wunderground v.1.15,2013-07-17 23:10:00,
2013-07-17 18:54:00,83.2,76.8,30.09,NNE,29,0.0,0.0,81,0.00,,,0.00,25,Wunderground v.1.15,2013-07-17 23:54:00,
2013-07-17 19:51:00,80.3,75.7,30.09,NNE,29,0.0,0.0,86,0.00,,,0.00,11,Wunderground v.1.15,2013-07-18 00:51:00,
2013-07-17 19:57:00,79.9,75.7,30.09,NNE,29,0.0,0.0,87,0.00,,,0.00,5,Wunderground v.1.15,2013-07-18 00:57:00,
2013-07-17 20:02:00,79.6,75.7,30.10,NNE,29,0.0,0.0,88,0.00,,,0.00,0,Wunderground v.1.15,2013-07-18 01:02:00,
2013-07-17 20:07:00,79.4,75.9,30.10,NNE,29,0.0,0.0,89,0.00,,,0.00,0,Wunderground v.1.15,2013-07-18 01:07:00,
2013-07-17 20:12:00,79.1,75.9,30.10,NNE,29,0.0,0.0,90,0.00,,,0.00,0,Wunderground v.1.15,2013-07-18 01:12:00,
2013-07-17 20:18:00,79.0,75.8,30.10,NNE,29,0.0,0.0,90,0.00,,,0.00,0,Wunderground v.1.15,2013-07-18 01:18:00,
2013-07-17 20:24:00,78.8,75.6,30.10,NNE,29,0.0,0.0,90,0.00,,,0.00,0,Wunderground v.1.15,2013-07-18 01:24:00,
2013-07-17 20:29:00,78.7,75.5,30.11,NNE,29,0.0,0.0,90,0.00,,,0.00,0,Wunderground v.1.15,2013-07-18 01:29:00,
2013-07-17 20:34:00,78.6,75.8,30.11,NNE,29,0.0,0.0,91,0.00,,,0.00,0,Wunderground v.1.15,2013-07-18 01:34:00,
2013-07-17 20:39:00,78.4,75.6,30.11,NNE,29,0.0,0.0,91,0.00,,,0.00,0,Wunderground v.1.15,2013-07-18 01:39:00,
2013-07-17 20:44:00,78.2,75.7,30.11,NNE,29,0.0,0.0,92,0.00,,,0.00,0,Wunderground v.1.15,2013-07-18 01:44:00,
2013-07-17 20:49:00,78.0,75.5,30.11,NNE,29,0.0,0.0,92,0.00,,,0.00,0,Wunderground v.1.15,2013-07-18 01:49:00,
2013-07-17 20:54:00,77.9,75.4,30.11,NNE,29,0.0,0.0,92,0.00,,,0.00,0,Wunderground v.1.15,2013-07-18 01:54:00,
2013-07-17 20:59:00,77.7,75.5,30.11,NNE,29,0.0,0.0,93,0.00,,,0.00,0,Wunderground v.1.15,2013-07-18 01:59:00,
2013-07-17 21:04:00,77.6,75.4,30.12,NNE,29,0.0,0.0,93,0.00,,,0.00,0,Wunderground v.1.15,2013-07-18 02:04:00,
2013-07-17 21:09:00,77.5,75.3,30.12,NNE,29,0.0,0.0,93,0.00,,,0.00,0,Wunderground v.1.15,2013-07-18 02:09:00,
2013-07-17 21:15:00,77.4,75.5,30.12,NNE,29,0.0,0.0,94,0.00,,,0.00,0,Wunderground v.1.15,2013-07-18 02:15:00,
2013-07-17 21:55:00,76.8,75.3,30.12,NNE,29,0.0,0.0,95,0.00,,,0.00,0,Wunderground v.1.15,2013-07-18 02:55:00,
2013-07-17 22:17:00,76.5,75.3,30.13,NNE,29,0.0,0.0,96,0.00,,,0.00,0,Wunderground v.1.15,2013-07-18 03:17:00,
2013-07-17 22:23:00,76.5,75.3,30.12,NNE,29,0.0,0.0,96,0.00,,,0.00,0,Wunderground v.1.15,2013-07-18 03:23:00,
2013-07-17 22:28:00,76.4,75.2,30.12,NNE,29,0.0,0.0,96,0.00,,,0.00,0,Wunderground v.1.15,2013-07-18 03:28:00,
2013-07-17 22:34:00,76.4,75.2,30.12,NNE,29,0.0,0.0,96,0.00,,,0.00,0,Wunderground v.1.15,2013-07-18 03:34:00,
2013-07-17 22:39:00,76.3,75.1,30.13,NNE,29,0.0,0.0,96,0.00,,,0.00,0,Wunderground v.1.15,2013-07-18 03:39:00,
2013-07-17 22:44:00,76.2,75.0,30.13,NNE,29,0.0,0.0,96,0.00,,,0.00,0,Wunderground v.1.15,2013-07-18 03:44:00,
2013-07-17 22:49:00,76.1,74.9,30.13,NNE,29,0.0,0.0,96,0.00,,,0.00,0,Wunderground v.1.15,2013-07-18 03:49:00,
2013-07-17 22:54:00,76.1,74.9,30.13,NNE,29,0.0,0.0,96,0.00,,,0.00,0,Wunderground v.1.15,2013-07-18 03:54:00,
2013-07-17 23:00:00,76.0,74.8,30.12,NNE,29,0.0,0.0,96,0.00,,,0.00,0,Wunderground v.1.15,2013-07-18 04:00:00,
2013-07-17 23:01:00,76.0,74.8,30.13,NNE,29,0.0,0.0,96,0.00,,,0.00,0,Wunderground v.1.15,2013-07-18 04:01:00,
2013-07-17 23:02:00,76.0,74.8,30.12,NNE,29,0.0,0.0,96,0.00,,,0.00,0,Wunderground v.1.15,2013-07-18 04:02:00,
2013-07-17 23:04:00,76.0,74.8,30.13,NNE,29,0.0,0.0,96,0.00,,,0.00,0,Wunderground v.1.15,2013-07-18 04:04:00,
2013-07-17 23:06:00,76.0,74.8,30.13,NNE,29,0.0,0.0,96,0.00,,,0.00,0,Wunderground v.1.15,2013-07-18 04:06:00,
2013-07-17 23:11:00,75.9,74.7,30.13,NNE,29,0.0,0.0,96,0.00,,,0.00,0,Wunderground v.1.15,2013-07-18 04:11:00,
2013-07-17 23:17:00,75.8,74.6,30.12,NNE,29,0.0,0.0,96,0.00,,,0.00,0,Wunderground v.1.15,2013-07-18 04:17:00,
2013-07-17 23:22:00,75.8,74.6,30.12,NNE,29,0.0,0.0,96,0.00,,,0.00,0,Wunderground v.1.15,2013-07-18 04:22:00,
2013-07-17 23:27:00,75.7,74.5,30.12,NNE,29,0.0,0.0,96,0.00,,,0.00,0,Wunderground v.1.15,2013-07-18 04:27:00,
2013-07-17 23:32:00,75.7,74.5,30.12,NNE,29,0.0,0.0,96,0.00,,,0.00,0,Wunderground v.1.15,2013-07-18 04:32:00,
2013-07-17 23:38:00,75.6,74.4,30.12,NNE,29,0.0,0.0,96,0.00,,,0.00,0,Wunderground v.1.15,2013-07-18 04:38:00,
2013-07-17 23:44:00,75.5,74.0,30.12,NNE,29,0.0,0.0,95,0.00,,,0.00,0,Wunderground v.1.15,2013-07-18 04:44:00,
2013-07-17 23:49:00,75.5,74.0,30.12,NNE,29,0.0,0.0,95,0.00,,,0.00,0,Wunderground v.1.15,2013-07-18 04:49:00,
2013-07-17 23:54:00,75.4,73.9,30.12,NNE,29,0.0,0.0,95,0.00,,,0.00,0,Wunderground v.1.15,2013-07-18 04:54:00,
2013-07-17 23:59:00,75.3,73.8,30.11,NNE,29,0.0,0.0,95,0.00,,,0.00,0,Wunderground v.1.15,2013-07-18 04:59:00,